sensor_id;sensor_type;location;lat;lon;timestamp;temperature;humidity
3684;DHT22;1858;48.716;9.648;2023-02-28T00:01:48;-1.00;99.90
3684;DHT22;1858;48.716;9.648;2023-02-28T00:04:16;-1.00;99.90
3684;DHT22;1858;48.716;9.648;2023-02-28T00:06:45;-1.00;99.90
3684;DHT22;1858;48.716;9.648;2023-02-28T00:09:13;-1.00;99.90
3684;DHT22;1858;48.716;9.648;2023-02-28T00:11:42;-1.10;99.90
3684;DHT22;1858;48.716;9.648;2023-02-28T00:14:10;-1.10;99.90
3684;DHT22;1858;48.716;9.648;2023-02-28T00:16:38;-1.00;99.90
3684;DHT22;1858;48.716;9.648;2023-02-28T00:19:07;-1.10;99.90
3684;DHT22;1858;48.716;9.648;2023-02-28T00:21:35;-1.00;99.90
3684;DHT22;1858;48.716;9.648;2023-02-28T00:24:08;-0.90;99.90
3684;DHT22;1858;48.716;9.648;2023-02-28T00:26:33;-1.00;99.90
3684;DHT22;1858;48.716;9.648;2023-02-28T00:29:02;-1.00;99.90
3684;DHT22;1858;48.716;9.648;2023-02-28T00:31:30;-0.90;99.90
3684;DHT22;1858;48.716;9.648;2023-02-28T00:33:58;-1.00;99.90
3684;DHT22;1858;48.716;9.648;2023-02-28T00:36:33;-1.00;99.90
3684;DHT22;1858;48.716;9.648;2023-02-28T00:39:02;-1.00;99.90
3684;DHT22;1858;48.716;9.648;2023-02-28T00:41:30;-0.90;99.90
3684;DHT22;1858;48.716;9.648;2023-02-28T00:43:59;-0.90;99.90
3684;DHT22;1858;48.716;9.648;2023-02-28T00:46:27;-0.90;99.90
3684;DHT22;1858;48.716;9.648;2023-02-28T00:48:55;-0.90;99.90
3684;DHT22;1858;48.716;9.648;2023-02-28T00:51:24;-1.00;99.90
3684;DHT22;1858;48.716;9.648;2023-02-28T00:53:52;-1.00;99.90
3684;DHT22;1858;48.716;9.648;2023-02-28T00:56:21;-0.90;99.90
3684;DHT22;1858;48.716;9.648;2023-02-28T00:58:49;-0.90;99.90
3684;DHT22;1858;48.716;9.648;2023-02-28T01:01:18;-0.90;99.90
3684;DHT22;1858;48.716;9.648;2023-02-28T01:03:46;-0.90;99.90
3684;DHT22;1858;48.716;9.648;2023-02-28T01:06:14;-0.80;99.90
3684;DHT22;1858;48.716;9.648;2023-02-28T01:08:43;-0.80;99.90
3684;DHT22;1858;48.716;9.648;2023-02-28T01:11:13;-0.90;99.90
3684;DHT22;1858;48.716;9.648;2023-02-28T01:13:43;-0.80;99.90
3684;DHT22;1858;48.716;9.648;2023-02-28T01:16:12;-0.80;99.90
3684;DHT22;1858;48.716;9.648;2023-02-28T01:18:41;-0.80;99.90
3684;DHT22;1858;48.716;9.648;2023-02-28T01:21:12;-0.80;99.90
3684;DHT22;1858;48.716;9.648;2023-02-28T01:23:41;-0.80;99.90
3684;DHT22;1858;48.716;9.648;2023-02-28T01:26:15;-0.80;99.90
3684;DHT22;1858;48.716;9.648;2023-02-28T01:28:44;-0.90;99.90
3684;DHT22;1858;48.716;9.648;2023-02-28T01:31:12;-0.90;99.90
3684;DHT22;1858;48.716;9.648;2023-02-28T01:33:41;-0.80;99.90
3684;DHT22;1858;48.716;9.648;2023-02-28T01:36:12;-0.80;99.90
3684;DHT22;1858;48.716;9.648;2023-02-28T01:38:48;-0.80;99.90
3684;DHT22;1858;48.716;9.648;2023-02-28T01:41:25;-1.00;99.90
3684;DHT22;1858;48.716;9.648;2023-02-28T01:46:25;-1.10;99.90
3684;DHT22;1858;48.716;9.648;2023-02-28T01:49:09;-1.10;99.90
3684;DHT22;1858;48.716;9.648;2023-02-28T01:51:42;-1.10;99.90
3684;DHT22;1858;48.716;9.648;2023-02-28T01:54:18;-1.10;99.90
3684;DHT22;1858;48.716;9.648;2023-02-28T01:56:53;-1.00;99.90
3684;DHT22;1858;48.716;9.648;2023-02-28T01:59:28;-1.00;99.90
3684;DHT22;1858;48.716;9.648;2023-02-28T02:01:53;-1.00;99.90
3684;DHT22;1858;48.716;9.648;2023-02-28T02:04:24;-1.00;99.90
3684;DHT22;1858;48.716;9.648;2023-02-28T02:06:54;-1.10;99.90
3684;DHT22;1858;48.716;9.648;2023-02-28T02:09:29;-1.10;99.90
3684;DHT22;1858;48.716;9.648;2023-02-28T02:11:59;-1.10;99.90
3684;DHT22;1858;48.716;9.648;2023-02-28T02:22:59;-1.10;1.00
3684;DHT22;1858;48.716;9.648;2023-02-28T02:25:28;-1.00;1.00
3684;DHT22;1858;48.716;9.648;2023-02-28T02:28:22;-1.10;1.00
3684;DHT22;1858;48.716;9.648;2023-02-28T02:34:00;-1.10;1.00
3684;DHT22;1858;48.716;9.648;2023-02-28T02:36:28;-1.10;1.00
3684;DHT22;1858;48.716;9.648;2023-02-28T02:39:02;-1.00;1.00
3684;DHT22;1858;48.716;9.648;2023-02-28T02:41:36;-1.00;1.00
3684;DHT22;1858;48.716;9.648;2023-02-28T02:47:15;-1.00;1.00
3684;DHT22;1858;48.716;9.648;2023-02-28T02:49:51;-1.10;1.00
3684;DHT22;1858;48.716;9.648;2023-02-28T02:52:18;-1.00;1.00
3684;DHT22;1858;48.716;9.648;2023-02-28T02:54:50;-1.00;1.00
3684;DHT22;1858;48.716;9.648;2023-02-28T02:57:26;-0.90;1.00
3684;DHT22;1858;48.716;9.648;2023-02-28T02:59:55;-1.00;1.00
3684;DHT22;1858;48.716;9.648;2023-02-28T03:02:25;-1.00;1.00
3684;DHT22;1858;48.716;9.648;2023-02-28T03:05:06;-1.10;1.00
3684;DHT22;1858;48.716;9.648;2023-02-28T03:07:34;-1.10;1.00
3684;DHT22;1858;48.716;9.648;2023-02-28T03:10:25;-1.10;1.00
3684;DHT22;1858;48.716;9.648;2023-02-28T03:12:41;-1.30;1.00
3684;DHT22;1858;48.716;9.648;2023-02-28T03:15:24;-1.20;1.00
3684;DHT22;1858;48.716;9.648;2023-02-28T03:17:56;-1.20;1.00
3684;DHT22;1858;48.716;9.648;2023-02-28T03:20:39;-1.10;1.00
3684;DHT22;1858;48.716;9.648;2023-02-28T03:23:21;-1.10;1.00
3684;DHT22;1858;48.716;9.648;2023-02-28T03:26:06;-1.10;1.00
3684;DHT22;1858;48.716;9.648;2023-02-28T03:28:42;-1.00;1.00
3684;DHT22;1858;48.716;9.648;2023-02-28T03:31:21;-1.10;1.00
3684;DHT22;1858;48.716;9.648;2023-02-28T03:33:55;-1.00;1.00
3684;DHT22;1858;48.716;9.648;2023-02-28T03:36:30;-1.00;1.00
3684;DHT22;1858;48.716;9.648;2023-02-28T03:39:08;-1.00;1.00
3684;DHT22;1858;48.716;9.648;2023-02-28T03:41:41;-0.90;1.00
3684;DHT22;1858;48.716;9.648;2023-02-28T03:44:14;-0.90;1.00
3684;DHT22;1858;48.716;9.648;2023-02-28T03:46:48;-0.80;1.00
3684;DHT22;1858;48.716;9.648;2023-02-28T03:49:26;-1.00;1.00
3684;DHT22;1858;48.716;9.648;2023-02-28T03:51:51;-0.90;1.00
3684;DHT22;1858;48.716;9.648;2023-02-28T03:54:35;-0.80;1.00
3684;DHT22;1858;48.716;9.648;2023-02-28T03:57:43;-0.80;1.00
3684;DHT22;1858;48.716;9.648;2023-02-28T03:59:47;-0.80;1.00
3684;DHT22;1858;48.716;9.648;2023-02-28T04:02:16;-0.90;1.00
3684;DHT22;1858;48.716;9.648;2023-02-28T04:04:45;-0.80;1.00
3684;DHT22;1858;48.716;9.648;2023-02-28T04:07:16;-0.80;1.00
3684;DHT22;1858;48.716;9.648;2023-02-28T04:09:45;-0.70;1.00
3684;DHT22;1858;48.716;9.648;2023-02-28T04:12:13;-0.70;1.00
3684;DHT22;1858;48.716;9.648;2023-02-28T04:14:41;-0.80;1.00
3684;DHT22;1858;48.716;9.648;2023-02-28T04:17:10;-0.70;1.00
3684;DHT22;1858;48.716;9.648;2023-02-28T04:19:45;-0.60;1.00
3684;DHT22;1858;48.716;9.648;2023-02-28T04:22:14;-0.60;1.00
3684;DHT22;1858;48.716;9.648;2023-02-28T04:24:44;-0.70;1.00
3684;DHT22;1858;48.716;9.648;2023-02-28T04:27:12;-0.70;1.00
3684;DHT22;1858;48.716;9.648;2023-02-28T04:29:42;-0.80;1.00
3684;DHT22;1858;48.716;9.648;2023-02-28T04:32:11;-0.80;1.00
3684;DHT22;1858;48.716;9.648;2023-02-28T04:34:40;-0.80;1.00
3684;DHT22;1858;48.716;9.648;2023-02-28T04:37:08;-0.80;1.00
3684;DHT22;1858;48.716;9.648;2023-02-28T04:39:37;-0.60;1.00
3684;DHT22;1858;48.716;9.648;2023-02-28T04:42:05;-0.60;1.00
3684;DHT22;1858;48.716;9.648;2023-02-28T04:44:33;-0.60;1.00
3684;DHT22;1858;48.716;9.648;2023-02-28T04:47:02;-0.60;1.00
3684;DHT22;1858;48.716;9.648;2023-02-28T04:49:30;-0.50;1.00
3684;DHT22;1858;48.716;9.648;2023-02-28T04:51:58;-0.50;1.00
3684;DHT22;1858;48.716;9.648;2023-02-28T04:54:27;-0.60;1.00
3684;DHT22;1858;48.716;9.648;2023-02-28T04:56:55;-0.60;1.00
3684;DHT22;1858;48.716;9.648;2023-02-28T04:59:24;-0.60;1.00
3684;DHT22;1858;48.716;9.648;2023-02-28T05:01:53;-0.50;1.00
3684;DHT22;1858;48.716;9.648;2023-02-28T05:04:21;-0.50;1.00
3684;DHT22;1858;48.716;9.648;2023-02-28T05:06:56;-0.60;1.00
3684;DHT22;1858;48.716;9.648;2023-02-28T05:09:24;-0.50;1.00
3684;DHT22;1858;48.716;9.648;2023-02-28T05:11:53;-0.40;1.00
3684;DHT22;1858;48.716;9.648;2023-02-28T05:14:23;-0.40;1.00
3684;DHT22;1858;48.716;9.648;2023-02-28T05:16:51;-0.60;1.00
3684;DHT22;1858;48.716;9.648;2023-02-28T05:19:19;-0.60;1.00
3684;DHT22;1858;48.716;9.648;2023-02-28T05:21:51;-0.50;1.00
3684;DHT22;1858;48.716;9.648;2023-02-28T05:24:20;-0.60;1.00
3684;DHT22;1858;48.716;9.648;2023-02-28T05:26:53;-0.60;1.00
3684;DHT22;1858;48.716;9.648;2023-02-28T05:29:28;-0.50;1.00
3684;DHT22;1858;48.716;9.648;2023-02-28T05:31:57;-0.70;1.00
3684;DHT22;1858;48.716;9.648;2023-02-28T05:34:25;-0.50;1.00
3684;DHT22;1858;48.716;9.648;2023-02-28T05:36:53;-0.60;1.00
3684;DHT22;1858;48.716;9.648;2023-02-28T05:39:22;-0.50;1.00
3684;DHT22;1858;48.716;9.648;2023-02-28T05:41:50;-0.50;1.00
3684;DHT22;1858;48.716;9.648;2023-02-28T05:44:18;-0.50;1.00
3684;DHT22;1858;48.716;9.648;2023-02-28T05:46:47;-0.40;1.00
3684;DHT22;1858;48.716;9.648;2023-02-28T05:49:15;-0.40;1.00
3684;DHT22;1858;48.716;9.648;2023-02-28T05:51:43;-0.20;1.00
3684;DHT22;1858;48.716;9.648;2023-02-28T05:54:12;-0.30;1.00
3684;DHT22;1858;48.716;9.648;2023-02-28T05:56:40;-0.20;1.00
3684;DHT22;1858;48.716;9.648;2023-02-28T05:59:11;-0.20;1.00
3684;DHT22;1858;48.716;9.648;2023-02-28T06:01:45;-0.20;1.00
3684;DHT22;1858;48.716;9.648;2023-02-28T06:04:17;-0.20;1.00
3684;DHT22;1858;48.716;9.648;2023-02-28T06:06:48;-0.10;1.00
3684;DHT22;1858;48.716;9.648;2023-02-28T06:09:17;-0.10;1.00
3684;DHT22;1858;48.716;9.648;2023-02-28T06:11:46;-0.10;1.00
3684;DHT22;1858;48.716;9.648;2023-02-28T06:14:16;-0.20;1.00
3684;DHT22;1858;48.716;9.648;2023-02-28T06:16:45;-0.20;1.00
3684;DHT22;1858;48.716;9.648;2023-02-28T06:19:14;-0.20;1.00
3684;DHT22;1858;48.716;9.648;2023-02-28T06:21:43;-0.20;1.00
3684;DHT22;1858;48.716;9.648;2023-02-28T06:24:12;-0.20;1.00
3684;DHT22;1858;48.716;9.648;2023-02-28T06:26:41;-0.20;1.00
3684;DHT22;1858;48.716;9.648;2023-02-28T06:29:09;-0.10;1.00
3684;DHT22;1858;48.716;9.648;2023-02-28T06:31:37;-0.10;1.00
3684;DHT22;1858;48.716;9.648;2023-02-28T06:34:06;-0.10;1.00
3684;DHT22;1858;48.716;9.648;2023-02-28T06:36:35;-0.10;1.00
3684;DHT22;1858;48.716;9.648;2023-02-28T06:39:03;-0.10;1.00
3684;DHT22;1858;48.716;9.648;2023-02-28T06:41:32;-0.10;1.00
3684;DHT22;1858;48.716;9.648;2023-02-28T06:44:02;-0.10;1.00
3684;DHT22;1858;48.716;9.648;2023-02-28T06:46:30;0.00;1.00
3684;DHT22;1858;48.716;9.648;2023-02-28T06:48:59;0.10;1.00
3684;DHT22;1858;48.716;9.648;2023-02-28T06:51:27;0.20;1.00
3684;DHT22;1858;48.716;9.648;2023-02-28T06:53:56;0.30;1.00
3684;DHT22;1858;48.716;9.648;2023-02-28T06:56:24;0.30;1.00
3684;DHT22;1858;48.716;9.648;2023-02-28T06:58:52;0.30;1.00
3684;DHT22;1858;48.716;9.648;2023-02-28T07:01:21;0.40;1.00
3684;DHT22;1858;48.716;9.648;2023-02-28T07:03:51;0.40;99.90
3684;DHT22;1858;48.716;9.648;2023-02-28T07:06:21;0.40;99.90
3684;DHT22;1858;48.716;9.648;2023-02-28T07:08:52;0.30;99.90
3684;DHT22;1858;48.716;9.648;2023-02-28T07:11:22;0.40;99.90
3684;DHT22;1858;48.716;9.648;2023-02-28T07:13:54;0.40;99.90
3684;DHT22;1858;48.716;9.648;2023-02-28T07:16:23;0.40;99.90
3684;DHT22;1858;48.716;9.648;2023-02-28T07:18:54;0.30;99.90
3684;DHT22;1858;48.716;9.648;2023-02-28T07:21:24;0.40;99.90
3684;DHT22;1858;48.716;9.648;2023-02-28T07:23:52;0.40;99.90
3684;DHT22;1858;48.716;9.648;2023-02-28T07:26:21;0.30;99.90
3684;DHT22;1858;48.716;9.648;2023-02-28T07:28:49;0.40;99.90
3684;DHT22;1858;48.716;9.648;2023-02-28T07:31:18;0.50;99.90
3684;DHT22;1858;48.716;9.648;2023-02-28T07:33:47;0.50;99.90
3684;DHT22;1858;48.716;9.648;2023-02-28T07:36:16;0.40;99.90
3684;DHT22;1858;48.716;9.648;2023-02-28T07:38:48;0.30;99.90
3684;DHT22;1858;48.716;9.648;2023-02-28T07:41:20;0.40;99.90
3684;DHT22;1858;48.716;9.648;2023-02-28T07:43:49;0.40;99.90
3684;DHT22;1858;48.716;9.648;2023-02-28T07:46:17;0.50;99.90
3684;DHT22;1858;48.716;9.648;2023-02-28T07:48:47;0.50;99.90
3684;DHT22;1858;48.716;9.648;2023-02-28T07:51:16;0.50;99.90
3684;DHT22;1858;48.716;9.648;2023-02-28T07:53:44;0.50;99.90
3684;DHT22;1858;48.716;9.648;2023-02-28T07:56:13;0.40;99.90
3684;DHT22;1858;48.716;9.648;2023-02-28T07:58:41;0.40;99.90
3684;DHT22;1858;48.716;9.648;2023-02-28T08:01:10;0.50;99.90
3684;DHT22;1858;48.716;9.648;2023-02-28T08:03:41;0.50;99.90
3684;DHT22;1858;48.716;9.648;2023-02-28T08:06:15;0.60;99.90
3684;DHT22;1858;48.716;9.648;2023-02-28T08:08:40;0.70;99.90
3684;DHT22;1858;48.716;9.648;2023-02-28T08:11:09;0.60;99.90
3684;DHT22;1858;48.716;9.648;2023-02-28T08:13:37;0.60;99.90
3684;DHT22;1858;48.716;9.648;2023-02-28T08:16:06;0.60;99.90
3684;DHT22;1858;48.716;9.648;2023-02-28T08:18:35;0.70;99.90
3684;DHT22;1858;48.716;9.648;2023-02-28T08:21:10;0.70;99.90
3684;DHT22;1858;48.716;9.648;2023-02-28T08:23:39;0.70;99.90
3684;DHT22;1858;48.716;9.648;2023-02-28T08:26:07;0.70;99.90
3684;DHT22;1858;48.716;9.648;2023-02-28T08:28:36;0.70;99.90
3684;DHT22;1858;48.716;9.648;2023-02-28T08:31:10;0.80;99.90
3684;DHT22;1858;48.716;9.648;2023-02-28T08:33:39;0.90;99.90
3684;DHT22;1858;48.716;9.648;2023-02-28T08:36:08;1.10;99.90
3684;DHT22;1858;48.716;9.648;2023-02-28T08:38:37;1.20;99.90
3684;DHT22;1858;48.716;9.648;2023-02-28T08:41:07;1.40;99.90
3684;DHT22;1858;48.716;9.648;2023-02-28T08:43:38;1.50;99.90
3684;DHT22;1858;48.716;9.648;2023-02-28T08:46:07;1.30;99.90
3684;DHT22;1858;48.716;9.648;2023-02-28T08:48:36;1.30;99.90
3684;DHT22;1858;48.716;9.648;2023-02-28T08:51:11;1.50;99.90
3684;DHT22;1858;48.716;9.648;2023-02-28T08:53:40;1.50;99.90
3684;DHT22;1858;48.716;9.648;2023-02-28T08:56:11;1.70;99.90
3684;DHT22;1858;48.716;9.648;2023-02-28T08:58:40;1.70;99.90
3684;DHT22;1858;48.716;9.648;2023-02-28T09:01:11;1.80;99.90
3684;DHT22;1858;48.716;9.648;2023-02-28T09:03:41;1.70;99.90
3684;DHT22;1858;48.716;9.648;2023-02-28T09:06:10;1.80;99.90
3684;DHT22;1858;48.716;9.648;2023-02-28T09:08:40;1.60;99.90
3684;DHT22;1858;48.716;9.648;2023-02-28T09:11:09;1.70;99.90
3684;DHT22;1858;48.716;9.648;2023-02-28T09:13:38;1.80;99.90
3684;DHT22;1858;48.716;9.648;2023-02-28T09:16:09;1.70;99.90
3684;DHT22;1858;48.716;9.648;2023-02-28T09:18:38;1.80;99.90
3684;DHT22;1858;48.716;9.648;2023-02-28T09:21:09;1.90;99.90
3684;DHT22;1858;48.716;9.648;2023-02-28T09:23:38;2.00;99.90
3684;DHT22;1858;48.716;9.648;2023-02-28T09:26:07;2.00;99.90
3684;DHT22;1858;48.716;9.648;2023-02-28T09:28:35;1.90;99.90
3684;DHT22;1858;48.716;9.648;2023-02-28T09:31:04;2.10;99.90
3684;DHT22;1858;48.716;9.648;2023-02-28T09:33:32;2.30;99.90
3684;DHT22;1858;48.716;9.648;2023-02-28T09:36:02;2.40;99.90
3684;DHT22;1858;48.716;9.648;2023-02-28T09:38:31;2.60;99.90
3684;DHT22;1858;48.716;9.648;2023-02-28T09:41:02;2.90;99.90
3684;DHT22;1858;48.716;9.648;2023-02-28T09:43:33;3.30;99.90
3684;DHT22;1858;48.716;9.648;2023-02-28T09:48:37;3.30;99.90
3684;DHT22;1858;48.716;9.648;2023-02-28T09:51:15;3.80;99.90
3684;DHT22;1858;48.716;9.648;2023-02-28T09:53:41;4.10;99.90
3684;DHT22;1858;48.716;9.648;2023-02-28T09:56:13;4.30;99.90
3684;DHT22;1858;48.716;9.648;2023-02-28T09:59:11;4.50;99.90
3684;DHT22;1858;48.716;9.648;2023-02-28T10:02:02;4.40;99.90
3684;DHT22;1858;48.716;9.648;2023-02-28T10:04:53;4.30;99.90
3684;DHT22;1858;48.716;9.648;2023-02-28T10:10:05;4.00;99.90
3684;DHT22;1858;48.716;9.648;2023-02-28T10:12:37;3.90;99.90
3684;DHT22;1858;48.716;9.648;2023-02-28T10:15:09;3.90;99.90
3684;DHT22;1858;48.716;9.648;2023-02-28T10:17:41;3.80;99.90
3684;DHT22;1858;48.716;9.648;2023-02-28T10:20:19;3.70;99.90
3684;DHT22;1858;48.716;9.648;2023-02-28T10:22:53;3.70;99.90
3684;DHT22;1858;48.716;9.648;2023-02-28T10:25:24;3.70;99.90
3684;DHT22;1858;48.716;9.648;2023-02-28T10:27:57;3.80;99.90
3684;DHT22;1858;48.716;9.648;2023-02-28T10:30:25;3.80;99.90
3684;DHT22;1858;48.716;9.648;2023-02-28T10:32:53;3.80;99.90
3684;DHT22;1858;48.716;9.648;2023-02-28T10:35:24;4.00;99.90
3684;DHT22;1858;48.716;9.648;2023-02-28T10:37:55;4.00;99.90
3684;DHT22;1858;48.716;9.648;2023-02-28T10:40:28;4.10;99.90
3684;DHT22;1858;48.716;9.648;2023-02-28T10:42:57;4.20;99.90
3684;DHT22;1858;48.716;9.648;2023-02-28T10:45:31;4.30;99.90
3684;DHT22;1858;48.716;9.648;2023-02-28T10:53:34;5.40;99.90
3684;DHT22;1858;48.716;9.648;2023-02-28T10:58:52;5.70;99.90
3684;DHT22;1858;48.716;9.648;2023-02-28T11:04:31;5.40;99.90
3684;DHT22;1858;48.716;9.648;2023-02-28T11:06:46;5.50;99.90
3684;DHT22;1858;48.716;9.648;2023-02-28T11:09:19;5.90;99.90
3684;DHT22;1858;48.716;9.648;2023-02-28T11:11:47;6.10;99.90
3684;DHT22;1858;48.716;9.648;2023-02-28T11:14:25;6.40;99.90
3684;DHT22;1858;48.716;9.648;2023-02-28T11:16:55;6.10;99.90
3684;DHT22;1858;48.716;9.648;2023-02-28T11:19:27;6.00;99.90
3684;DHT22;1858;48.716;9.648;2023-02-28T11:22:01;5.80;99.90
3684;DHT22;1858;48.716;9.648;2023-02-28T11:27:02;5.60;99.90
3684;DHT22;1858;48.716;9.648;2023-02-28T11:29:32;5.40;99.90
3684;DHT22;1858;48.716;9.648;2023-02-28T11:32:24;5.60;99.90
3684;DHT22;1858;48.716;9.648;2023-02-28T11:37:32;6.10;99.90
3684;DHT22;1858;48.716;9.648;2023-02-28T11:40:02;6.10;99.90
3684;DHT22;1858;48.716;9.648;2023-02-28T11:48:32;6.20;99.90
3684;DHT22;1858;48.716;9.648;2023-02-28T11:53:57;6.40;99.90
3684;DHT22;1858;48.716;9.648;2023-02-28T11:56:37;6.60;99.90
3684;DHT22;1858;48.716;9.648;2023-02-28T11:59:43;6.60;99.90
3684;DHT22;1858;48.716;9.648;2023-02-28T12:10:20;6.30;99.90
3684;DHT22;1858;48.716;9.648;2023-02-28T12:13:06;6.40;99.90
3684;DHT22;1858;48.716;9.648;2023-02-28T12:26:46;6.90;99.90
3684;DHT22;1858;48.716;9.648;2023-02-28T12:29:37;7.00;99.90
3684;DHT22;1858;48.716;9.648;2023-02-28T12:32:25;7.00;99.90
3684;DHT22;1858;48.716;9.648;2023-02-28T12:35:12;6.80;99.90
3684;DHT22;1858;48.716;9.648;2023-02-28T12:37:47;6.70;99.90
3684;DHT22;1858;48.716;9.648;2023-02-28T12:40:23;6.70;99.90
3684;DHT22;1858;48.716;9.648;2023-02-28T12:42:58;6.70;99.90
3684;DHT22;1858;48.716;9.648;2023-02-28T12:45:38;6.50;99.90
3684;DHT22;1858;48.716;9.648;2023-02-28T12:48:04;6.50;99.90
3684;DHT22;1858;48.716;9.648;2023-02-28T12:50:34;6.60;99.90
3684;DHT22;1858;48.716;9.648;2023-02-28T12:58:50;6.80;99.90
3684;DHT22;1858;48.716;9.648;2023-02-28T13:01:34;6.70;99.90
3684;DHT22;1858;48.716;9.648;2023-02-28T13:09:59;6.60;99.90
3684;DHT22;1858;48.716;9.648;2023-02-28T13:12:28;6.60;99.90
3684;DHT22;1858;48.716;9.648;2023-02-28T13:15:08;6.60;99.90
3684;DHT22;1858;48.716;9.648;2023-02-28T13:17:40;6.60;99.90
3684;DHT22;1858;48.716;9.648;2023-02-28T13:20:26;6.60;99.90
3684;DHT22;1858;48.716;9.648;2023-02-28T13:22:55;6.50;99.90
3684;DHT22;1858;48.716;9.648;2023-02-28T13:28:56;6.60;99.90
3684;DHT22;1858;48.716;9.648;2023-02-28T13:33:31;6.40;99.90
3684;DHT22;1858;48.716;9.648;2023-02-28T13:38:48;6.40;99.90
3684;DHT22;1858;48.716;9.648;2023-02-28T13:44:08;6.60;99.90
3684;DHT22;1858;48.716;9.648;2023-02-28T13:49:26;6.60;99.90
3684;DHT22;1858;48.716;9.648;2023-02-28T13:52:12;6.60;99.90
3684;DHT22;1858;48.716;9.648;2023-02-28T14:06:08;6.50;99.90
3684;DHT22;1858;48.716;9.648;2023-02-28T14:08:37;6.50;99.90
3684;DHT22;1858;48.716;9.648;2023-02-28T14:11:22;6.30;99.90
3684;DHT22;1858;48.716;9.648;2023-02-28T14:13:44;6.20;99.90
3684;DHT22;1858;48.716;9.648;2023-02-28T14:16:20;6.20;99.90
3684;DHT22;1858;48.716;9.648;2023-02-28T14:19:00;6.30;99.90
3684;DHT22;1858;48.716;9.648;2023-02-28T14:21:33;6.20;99.90
3684;DHT22;1858;48.716;9.648;2023-02-28T14:27:29;6.10;99.90
3684;DHT22;1858;48.716;9.648;2023-02-28T14:29:43;6.20;99.90
3684;DHT22;1858;48.716;9.648;2023-02-28T14:37:49;6.10;99.90
3684;DHT22;1858;48.716;9.648;2023-02-28T14:40:26;6.00;99.90
3684;DHT22;1858;48.716;9.648;2023-02-28T14:42:59;6.10;99.90
3684;DHT22;1858;48.716;9.648;2023-02-28T14:45:30;6.30;99.90
3684;DHT22;1858;48.716;9.648;2023-02-28T14:47:59;6.20;99.90
3684;DHT22;1858;48.716;9.648;2023-02-28T14:50:34;6.20;99.90
3684;DHT22;1858;48.716;9.648;2023-02-28T14:53:03;6.20;99.90
3684;DHT22;1858;48.716;9.648;2023-02-28T14:55:37;6.10;99.90
3684;DHT22;1858;48.716;9.648;2023-02-28T14:58:06;6.00;99.90
3684;DHT22;1858;48.716;9.648;2023-02-28T15:00:36;6.00;99.90
3684;DHT22;1858;48.716;9.648;2023-02-28T15:03:23;6.00;99.90
3684;DHT22;1858;48.716;9.648;2023-02-28T15:05:57;5.90;99.90
3684;DHT22;1858;48.716;9.648;2023-02-28T15:08:27;5.80;99.90
3684;DHT22;1858;48.716;9.648;2023-02-28T15:10:58;5.70;99.90
3684;DHT22;1858;48.716;9.648;2023-02-28T15:13:51;5.60;99.90
3684;DHT22;1858;48.716;9.648;2023-02-28T15:16:31;5.60;99.90
3684;DHT22;1858;48.716;9.648;2023-02-28T15:19:14;5.50;99.90
3684;DHT22;1858;48.716;9.648;2023-02-28T15:21:45;5.50;99.90
3684;DHT22;1858;48.716;9.648;2023-02-28T15:26:57;5.50;99.90
3684;DHT22;1858;48.716;9.648;2023-02-28T15:29:28;5.40;99.90
3684;DHT22;1858;48.716;9.648;2023-02-28T15:32:06;5.30;99.90
3684;DHT22;1858;48.716;9.648;2023-02-28T15:34:40;5.30;99.90
3684;DHT22;1858;48.716;9.648;2023-02-28T15:45:47;5.00;99.90
3684;DHT22;1858;48.716;9.648;2023-02-28T15:48:28;5.00;99.90
3684;DHT22;1858;48.716;9.648;2023-02-28T15:51:06;4.70;99.90
3684;DHT22;1858;48.716;9.648;2023-02-28T15:53:56;4.70;99.90
3684;DHT22;1858;48.716;9.648;2023-02-28T15:56:43;4.70;99.90
3684;DHT22;1858;48.716;9.648;2023-02-28T15:59:05;4.70;99.90
3684;DHT22;1858;48.716;9.648;2023-02-28T16:01:35;4.70;99.90
3684;DHT22;1858;48.716;9.648;2023-02-28T16:04:06;4.70;99.90
3684;DHT22;1858;48.716;9.648;2023-02-28T16:06:45;4.70;99.90
3684;DHT22;1858;48.716;9.648;2023-02-28T16:09:16;4.60;99.90
3684;DHT22;1858;48.716;9.648;2023-02-28T16:11:49;4.60;99.90
3684;DHT22;1858;48.716;9.648;2023-02-28T16:14:23;4.50;99.90
3684;DHT22;1858;48.716;9.648;2023-02-28T16:17:02;4.40;99.90
3684;DHT22;1858;48.716;9.648;2023-02-28T16:19:25;4.30;99.90
3684;DHT22;1858;48.716;9.648;2023-02-28T16:21:54;4.20;99.90
3684;DHT22;1858;48.716;9.648;2023-02-28T16:24:22;4.20;99.90
3684;DHT22;1858;48.716;9.648;2023-02-28T16:26:52;4.10;99.90
3684;DHT22;1858;48.716;9.648;2023-02-28T16:29:33;4.10;99.90
3684;DHT22;1858;48.716;9.648;2023-02-28T16:32:04;4.00;99.90
3684;DHT22;1858;48.716;9.648;2023-02-28T16:34:33;4.00;99.90
3684;DHT22;1858;48.716;9.648;2023-02-28T16:37:01;4.00;99.90
3684;DHT22;1858;48.716;9.648;2023-02-28T16:39:30;3.90;99.90
3684;DHT22;1858;48.716;9.648;2023-02-28T16:41:58;3.80;99.90
3684;DHT22;1858;48.716;9.648;2023-02-28T16:44:33;3.70;99.90
3684;DHT22;1858;48.716;9.648;2023-02-28T16:46:59;3.70;99.90
3684;DHT22;1858;48.716;9.648;2023-02-28T16:49:28;3.60;99.90
3684;DHT22;1858;48.716;9.648;2023-02-28T16:51:57;3.60;99.90
3684;DHT22;1858;48.716;9.648;2023-02-28T16:54:25;3.60;99.90
3684;DHT22;1858;48.716;9.648;2023-02-28T16:56:54;3.50;99.90
3684;DHT22;1858;48.716;9.648;2023-02-28T16:59:24;3.40;99.90
3684;DHT22;1858;48.716;9.648;2023-02-28T17:01:53;3.40;99.90
3684;DHT22;1858;48.716;9.648;2023-02-28T17:04:23;3.40;99.90
3684;DHT22;1858;48.716;9.648;2023-02-28T17:06:52;3.30;99.90
3684;DHT22;1858;48.716;9.648;2023-02-28T17:09:22;3.30;99.90
3684;DHT22;1858;48.716;9.648;2023-02-28T17:11:52;3.20;99.90
3684;DHT22;1858;48.716;9.648;2023-02-28T17:14:21;3.20;99.90
3684;DHT22;1858;48.716;9.648;2023-02-28T17:16:50;3.10;99.90
3684;DHT22;1858;48.716;9.648;2023-02-28T17:19:19;3.10;99.90
3684;DHT22;1858;48.716;9.648;2023-02-28T17:21:47;3.10;99.90
3684;DHT22;1858;48.716;9.648;2023-02-28T17:24:16;3.00;99.90
3684;DHT22;1858;48.716;9.648;2023-02-28T17:26:44;3.00;99.90
3684;DHT22;1858;48.716;9.648;2023-02-28T17:29:22;3.00;99.90
3684;DHT22;1858;48.716;9.648;2023-02-28T17:31:46;3.00;99.90
3684;DHT22;1858;48.716;9.648;2023-02-28T17:34:15;3.00;99.90
3684;DHT22;1858;48.716;9.648;2023-02-28T17:36:46;2.90;99.90
3684;DHT22;1858;48.716;9.648;2023-02-28T17:39:16;2.80;99.90
3684;DHT22;1858;48.716;9.648;2023-02-28T17:41:51;2.80;99.90
3684;DHT22;1858;48.716;9.648;2023-02-28T17:44:21;2.80;99.90
3684;DHT22;1858;48.716;9.648;2023-02-28T17:46:51;2.70;99.90
3684;DHT22;1858;48.716;9.648;2023-02-28T17:49:21;2.60;99.90
3684;DHT22;1858;48.716;9.648;2023-02-28T17:51:50;2.60;99.90
3684;DHT22;1858;48.716;9.648;2023-02-28T17:54:19;2.50;99.90
3684;DHT22;1858;48.716;9.648;2023-02-28T17:56:47;2.50;99.90
3684;DHT22;1858;48.716;9.648;2023-02-28T17:59:15;2.50;99.90
3684;DHT22;1858;48.716;9.648;2023-02-28T18:01:44;2.40;99.90
3684;DHT22;1858;48.716;9.648;2023-02-28T18:04:13;2.40;99.90
3684;DHT22;1858;48.716;9.648;2023-02-28T18:06:43;2.40;99.90
3684;DHT22;1858;48.716;9.648;2023-02-28T18:09:22;2.30;99.90
3684;DHT22;1858;48.716;9.648;2023-02-28T18:11:52;2.40;99.90
3684;DHT22;1858;48.716;9.648;2023-02-28T18:14:22;2.40;99.90
3684;DHT22;1858;48.716;9.648;2023-02-28T18:16:53;2.50;99.90
3684;DHT22;1858;48.716;9.648;2023-02-28T18:19:23;2.30;99.90
3684;DHT22;1858;48.716;9.648;2023-02-28T18:21:52;2.30;99.90
3684;DHT22;1858;48.716;9.648;2023-02-28T18:24:22;2.30;99.90
3684;DHT22;1858;48.716;9.648;2023-02-28T18:26:51;2.30;99.90
3684;DHT22;1858;48.716;9.648;2023-02-28T18:29:22;2.30;99.90
3684;DHT22;1858;48.716;9.648;2023-02-28T18:31:51;2.20;99.90
3684;DHT22;1858;48.716;9.648;2023-02-28T18:34:20;2.10;99.90
3684;DHT22;1858;48.716;9.648;2023-02-28T18:36:50;2.20;99.90
3684;DHT22;1858;48.716;9.648;2023-02-28T18:39:19;2.20;99.90
3684;DHT22;1858;48.716;9.648;2023-02-28T18:41:48;2.10;99.90
3684;DHT22;1858;48.716;9.648;2023-02-28T18:44:16;2.10;99.90
3684;DHT22;1858;48.716;9.648;2023-02-28T18:46:45;2.10;99.90
3684;DHT22;1858;48.716;9.648;2023-02-28T18:49:13;2.00;99.90